Portada
METAR-TAF:

METAR-TAF

Aeroports :

Casement Aerodrome

Dublín, Irlanda

latitud: 53-18-06N, longitud: 6-27-04W, altitud: 97 m

Observació

L'informe es va fer fa 24 minuts, a les 21:00 UTC
Vent 7 kt del Est
Temperatura 16°C
Humitat 88%
Pressió 1014 hPa
Visibilitat 10 km o més
Escasses núvols a una alçada de 2100 ft
Núvols disperses a una alçada de 9000 ft

METAR: EIME 242100Z 10007KT 9999 FEW021 SCT090 16/14 Q1014

Hora: 22:24 (21:24 UTC)

Pronòstic

L'informe es va fer fa 1 hora i 24 minuts, a les 20:00 UTC
Pronòstic vàlid del 24 a les 21 UTC al 25 a les 06 UTC
Vent 3 kt amb direcció variable
Visibilitat 10 km o més
Escasses núvols a una alçada de 4000 ft
Evolucionant progressivament
l' 25 a les 02 UTC al 25 a les 04 UTC
Vent 7 kt del Sud/Sud-Oest
Probabilitat 40% :
Temporalment
l' 25 a les 04 UTC al 25 a les 06 UTC
Visibilitat: 4000 m
boirina

TAF: EIME 242000Z 2421/2506 VRB03KT 9999 FEW040 BECMG 2502/2504 21007KT PROB40 TEMPO 2504/2506 4000 BR

Observacions i pronòstics meteorològics de més de 4000 aeroports (METAR i TAF).

Les estacions disponibles són els punts grocs i vermells al mapa.

Posi el ratolí al punt desitjat per veure el nom de l'estació.

Feu clic per veure les observacions i els pronòstics meteorològics.

Per canviar el mapa: feu clic els botons verds amb una creu de color negre per apropar; al botó verd amb un guió per allunyar la imatge; o en les fletxes verdes per a mapes adjacents.


METAR-TAF: